createdAt,value
2017-09-05T00:00:53.835Z,15.19
2017-09-05T00:01:53.822Z,15.19
2017-09-05T00:02:53.816Z,15.19
2017-09-05T00:03:53.799Z,15.19
2017-09-05T00:04:53.790Z,15.19
2017-09-05T00:05:53.771Z,15.13
2017-09-05T00:06:53.762Z,15.13
2017-09-05T00:07:53.750Z,15.13
2017-09-05T00:08:53.736Z,15.13
2017-09-05T00:09:53.724Z,15.13
2017-09-05T00:10:53.708Z,15.19
2017-09-05T00:11:53.698Z,15.13
2017-09-05T00:12:53.688Z,15.13
2017-09-05T00:13:53.673Z,15.13
2017-09-05T00:14:53.663Z,15.13
2017-09-05T00:15:53.644Z,15.19
2017-09-05T00:16:53.638Z,15.13
2017-09-05T00:17:53.624Z,15.13
2017-09-05T00:18:53.612Z,15.13
2017-09-05T00:19:53.598Z,15.19
2017-09-05T00:20:53.588Z,15.19
2017-09-05T00:21:53.572Z,15.19
2017-09-05T00:22:53.563Z,15.19
2017-09-05T00:23:53.550Z,15.19
2017-09-05T00:24:53.537Z,15.19
2017-09-05T00:25:53.521Z,15.19
2017-09-05T00:26:53.512Z,15.19
2017-09-05T00:27:53.496Z,15.19
2017-09-05T00:28:53.486Z,15.19
2017-09-05T00:29:53.476Z,15.19
2017-09-05T00:30:53.460Z,15.19
2017-09-05T00:31:53.451Z,15.19
2017-09-05T00:32:53.435Z,15.19
2017-09-05T00:33:53.422Z,15.19
2017-09-05T00:34:53.410Z,15.19
2017-09-05T00:35:53.399Z,15.19
2017-09-05T00:36:53.389Z,15.19
2017-09-05T00:37:53.373Z,15.19
2017-09-05T00:38:53.363Z,15.19
2017-09-05T00:39:53.357Z,15.19
2017-09-05T00:40:53.342Z,15.19
2017-09-05T00:41:53.325Z,15.19
2017-09-05T00:42:53.312Z,15.19
2017-09-05T00:43:53.299Z,15.19
2017-09-05T00:44:53.286Z,15.19
2017-09-05T00:45:53.279Z,15.19
2017-09-05T00:46:53.263Z,15.19
2017-09-05T00:47:53.261Z,15.19
2017-09-05T00:48:53.238Z,15.13
2017-09-05T00:49:53.219Z,15.13
2017-09-05T00:50:53.213Z,15.13
2017-09-05T00:51:53.201Z,15.13
2017-09-05T00:52:53.187Z,15.13
2017-09-05T00:53:53.174Z,15.13
2017-09-05T00:54:53.161Z,15.13
2017-09-05T00:55:53.145Z,15.13
2017-09-05T00:56:53.135Z,15.13
2017-09-05T00:57:53.123Z,15.13
2017-09-05T00:58:53.114Z,15.13
2017-09-05T00:59:53.101Z,15.13
2017-09-05T01:00:53.085Z,15.13
2017-09-05T01:01:53.069Z,15.13
2017-09-05T01:02:53.062Z,15.13
2017-09-05T01:03:53.049Z,15.13
2017-09-05T01:04:53.037Z,15.13
2017-09-05T01:05:53.024Z,15.13
2017-09-05T01:06:53.011Z,15.13
2017-09-05T01:07:52.998Z,15.13
2017-09-05T01:08:52.988Z,15.13
2017-09-05T01:09:52.977Z,15.13
2017-09-05T01:10:52.963Z,15.19
2017-09-05T01:11:52.950Z,15.13
2017-09-05T01:12:52.934Z,15.19
2017-09-05T01:13:52.921Z,15.19
2017-09-05T01:14:52.909Z,15.19
2017-09-05T01:15:52.898Z,15.19
2017-09-05T01:16:52.889Z,15.19
2017-09-05T01:17:52.873Z,15.19
2017-09-05T01:18:52.864Z,15.19
2017-09-05T01:19:52.851Z,15.19
2017-09-05T01:20:52.838Z,15.19
2017-09-05T01:21:52.825Z,15.19
2017-09-05T01:22:52.812Z,15.19
2017-09-05T01:23:52.799Z,15.13
2017-09-05T01:24:52.789Z,15.13
2017-09-05T01:25:52.773Z,15.13
2017-09-05T01:26:52.758Z,15.13
2017-09-05T01:27:52.751Z,15.13
2017-09-05T01:28:52.745Z,15.13
2017-09-05T01:29:52.732Z,15.13
2017-09-05T01:30:52.719Z,15.13
2017-09-05T01:31:52.697Z,15.06
2017-09-05T01:32:52.684Z,15.06
2017-09-05T01:33:52.671Z,15.06
2017-09-05T01:34:52.662Z,15.06
2017-09-05T01:35:52.649Z,15.06
2017-09-05T01:36:52.644Z,15.06
2017-09-05T01:37:52.623Z,15.06
2017-09-05T01:38:52.613Z,15.00
2017-09-05T01:39:52.602Z,15.00
2017-09-05T01:40:52.589Z,15.00
2017-09-05T01:41:52.580Z,15.00
2017-09-05T01:42:52.564Z,14.94
2017-09-05T01:43:52.552Z,14.94
2017-09-05T01:44:52.539Z,14.94
2017-09-05T01:45:52.525Z,14.94
2017-09-05T01:46:52.515Z,14.88
2017-09-05T01:47:52.504Z,14.88
2017-09-05T01:48:52.490Z,14.88
2017-09-05T01:49:52.471Z,14.88
2017-09-05T01:50:52.464Z,14.88
2017-09-05T01:51:52.452Z,14.81
2017-09-05T01:52:52.439Z,14.81
2017-09-05T01:53:52.426Z,14.81
2017-09-05T01:54:52.417Z,14.81
2017-09-05T01:55:52.401Z,14.75
2017-09-05T01:56:52.390Z,14.75
2017-09-05T01:57:52.381Z,14.75
2017-09-05T01:58:52.369Z,14.69
2017-09-05T01:59:52.353Z,14.69
2017-09-05T02:00:52.340Z,14.69
2017-09-05T02:01:52.327Z,14.69
2017-09-05T02:02:52.315Z,14.69
2017-09-05T02:03:52.302Z,14.63
2017-09-05T02:04:52.293Z,14.63
2017-09-05T02:05:52.273Z,14.63
2017-09-05T02:06:52.266Z,14.63
2017-09-05T02:07:52.251Z,14.63
2017-09-05T02:08:52.241Z,14.56
2017-09-05T02:09:52.231Z,14.56
2017-09-05T02:10:52.215Z,14.63
2017-09-05T02:11:52.196Z,14.56
2017-09-05T02:12:52.193Z,14.56
2017-09-05T02:13:52.181Z,14.56
2017-09-05T02:14:52.168Z,14.56
2017-09-05T02:15:52.155Z,14.56
2017-09-05T02:16:52.142Z,14.56
2017-09-05T02:17:52.129Z,14.56
2017-09-05T02:18:52.119Z,14.56
2017-09-05T02:19:52.104Z,14.56
2017-09-05T02:20:52.090Z,14.56
2017-09-05T02:21:52.076Z,14.63
2017-09-05T02:22:52.065Z,14.56
2017-09-05T02:23:52.053Z,14.56
2017-09-05T02:24:52.045Z,14.56
2017-09-05T02:25:52.027Z,14.56
2017-09-05T02:26:52.015Z,14.63
2017-09-05T02:27:52.008Z,14.63
2017-09-05T02:28:51.990Z,14.63
2017-09-05T02:29:51.983Z,14.63
2017-09-05T02:30:51.967Z,14.63
2017-09-05T02:31:51.954Z,14.63
2017-09-05T02:32:51.942Z,14.63
2017-09-05T02:33:51.928Z,14.63
2017-09-05T02:34:51.919Z,14.63
2017-09-05T02:35:51.906Z,14.63
2017-09-05T02:36:51.894Z,14.63
2017-09-05T02:37:51.877Z,14.69
2017-09-05T02:38:51.868Z,14.69
2017-09-05T02:39:51.855Z,14.69
2017-09-05T02:40:51.843Z,14.69
2017-09-05T02:41:51.829Z,14.69
2017-09-05T02:42:51.816Z,14.69
2017-09-05T02:43:51.831Z,14.69
2017-09-05T02:44:51.791Z,14.69
2017-09-05T02:45:51.779Z,14.69
2017-09-05T02:46:51.769Z,14.69
2017-09-05T02:47:51.757Z,14.69
2017-09-05T02:48:51.744Z,14.69
2017-09-05T02:49:51.731Z,14.69
2017-09-05T02:50:51.733Z,14.69
2017-09-05T02:51:51.706Z,14.69
2017-09-05T02:52:51.689Z,14.69
2017-09-05T02:53:51.680Z,14.69
2017-09-05T02:54:51.670Z,14.69
2017-09-05T02:55:51.658Z,14.69
2017-09-05T02:56:51.645Z,14.69
2017-09-05T02:57:51.626Z,14.69
2017-09-05T02:58:51.613Z,14.69
2017-09-05T02:59:51.607Z,14.69
2017-09-05T03:00:51.593Z,14.69
2017-09-05T03:01:51.579Z,14.69
2017-09-05T03:02:51.569Z,14.69
2017-09-05T03:03:51.557Z,14.69
2017-09-05T03:04:51.544Z,14.69
2017-09-05T03:05:51.531Z,14.69
2017-09-05T03:06:51.518Z,14.69
2017-09-05T03:07:51.509Z,14.69
2017-09-05T03:08:51.493Z,14.69
2017-09-05T03:09:51.482Z,14.69
2017-09-05T03:10:51.467Z,14.69
2017-09-05T03:11:51.455Z,14.69
2017-09-05T03:12:51.450Z,14.69
2017-09-05T03:13:51.434Z,14.75
2017-09-05T03:14:51.416Z,14.75
2017-09-05T03:15:51.402Z,14.75
2017-09-05T03:16:51.398Z,14.75
2017-09-05T03:17:51.382Z,14.75
2017-09-05T03:18:51.375Z,14.75
2017-09-05T03:19:51.356Z,14.75
2017-09-05T03:20:51.341Z,14.75
2017-09-05T03:21:51.330Z,14.75
2017-09-05T03:22:51.318Z,14.75
2017-09-05T03:23:51.308Z,14.75
2017-09-05T03:24:51.295Z,14.75
2017-09-05T03:25:51.284Z,14.75
2017-09-05T03:26:51.272Z,14.75
2017-09-05T03:27:51.251Z,14.75
2017-09-05T03:28:51.242Z,14.75
2017-09-05T03:29:51.231Z,14.75
2017-09-05T03:30:51.219Z,14.75
2017-09-05T03:31:51.209Z,14.75
2017-09-05T03:32:51.193Z,14.75
2017-09-05T03:33:51.179Z,14.75
2017-09-05T03:34:51.170Z,14.75
2017-09-05T03:35:51.157Z,14.75
2017-09-05T03:36:51.144Z,14.75
2017-09-05T03:37:51.131Z,14.75
2017-09-05T03:38:51.119Z,14.75
2017-09-05T03:39:51.106Z,14.75
2017-09-05T03:40:51.098Z,14.75
2017-09-05T03:41:51.077Z,14.75
2017-09-05T03:42:51.070Z,14.75
2017-09-05T03:43:51.057Z,14.75
2017-09-05T03:44:51.042Z,14.75
2017-09-05T03:45:51.029Z,14.75
2017-09-05T03:46:51.016Z,14.75
2017-09-05T03:47:51.003Z,14.75
2017-09-05T03:48:50.990Z,14.75
2017-09-05T03:49:50.983Z,14.75
2017-09-05T03:50:50.967Z,14.75
2017-09-05T03:51:50.954Z,14.75
2017-09-05T03:52:50.941Z,14.75
2017-09-05T03:53:50.929Z,14.75
2017-09-05T03:54:50.919Z,14.75
2017-09-05T03:55:50.910Z,14.75
2017-09-05T03:56:50.893Z,14.75
2017-09-05T03:57:50.881Z,14.75
2017-09-05T03:58:50.867Z,14.75
2017-09-05T03:59:50.862Z,14.75
2017-09-05T04:00:50.843Z,14.75
2017-09-05T04:01:50.829Z,14.75
2017-09-05T04:02:50.819Z,14.75
2017-09-05T04:03:50.803Z,14.75
2017-09-05T04:04:50.791Z,14.75
2017-09-05T04:05:50.782Z,14.75
2017-09-05T04:06:50.765Z,14.81
2017-09-05T04:07:50.752Z,14.75
2017-09-05T04:08:50.743Z,14.75
2017-09-05T04:09:50.734Z,14.81
2017-09-05T04:10:50.717Z,14.75
2017-09-05T04:11:50.705Z,14.75
2017-09-05T04:12:50.689Z,14.75
2017-09-05T04:13:50.679Z,14.81
2017-09-05T04:14:50.666Z,14.81
2017-09-05T04:15:50.656Z,14.81
2017-09-05T04:16:50.640Z,14.81
2017-09-05T04:17:50.625Z,14.81
2017-09-05T04:18:50.612Z,14.81
2017-09-05T04:19:50.602Z,14.81
2017-09-05T04:20:50.593Z,14.81
2017-09-05T04:21:50.578Z,14.81
2017-09-05T04:22:50.567Z,14.81
2017-09-05T04:23:50.548Z,14.81
2017-09-05T04:24:50.538Z,14.81
2017-09-05T04:25:50.526Z,14.81
2017-09-05T04:26:50.515Z,14.81
2017-09-05T04:27:50.503Z,14.81
2017-09-05T04:28:50.490Z,14.81
2017-09-05T04:29:50.473Z,14.81
2017-09-05T04:30:50.464Z,14.81
2017-09-05T04:31:50.451Z,14.81
2017-09-05T04:32:50.442Z,14.81
2017-09-05T04:33:50.422Z,14.81
2017-09-05T04:34:50.417Z,14.81
2017-09-05T04:35:50.403Z,14.81
2017-09-05T04:36:50.390Z,14.81
2017-09-05T04:37:50.380Z,14.81
2017-09-05T04:38:50.364Z,14.81
2017-09-05T04:39:50.355Z,14.81
2017-09-05T04:40:50.337Z,14.81
2017-09-05T04:41:50.322Z,14.81
2017-09-05T04:42:50.313Z,14.81
2017-09-05T04:43:50.297Z,14.81
2017-09-05T04:44:50.287Z,14.81
2017-09-05T04:45:50.279Z,14.81
2017-09-05T04:46:50.265Z,14.81
2017-09-05T04:47:50.251Z,14.81
2017-09-05T04:48:50.236Z,14.81
2017-09-05T04:49:50.226Z,14.81
2017-09-05T04:50:50.208Z,14.81
2017-09-05T04:51:50.200Z,14.81
2017-09-05T04:52:50.187Z,14.81
2017-09-05T04:53:50.170Z,14.81
2017-09-05T04:54:50.164Z,14.81
2017-09-05T04:55:50.148Z,14.81
2017-09-05T04:56:50.139Z,14.81
2017-09-05T04:57:50.123Z,14.81
2017-09-05T04:58:50.113Z,14.81
2017-09-05T04:59:50.100Z,14.81
2017-09-05T05:00:50.088Z,14.81
2017-09-05T05:01:50.078Z,14.75
2017-09-05T05:02:50.062Z,14.81
2017-09-05T05:03:50.049Z,14.81
2017-09-05T05:04:50.036Z,14.81
2017-09-05T05:05:50.018Z,14.81
2017-09-05T05:06:50.011Z,14.81
2017-09-05T05:07:49.998Z,14.81
2017-09-05T05:08:49.988Z,14.81
2017-09-05T05:09:49.972Z,14.81
2017-09-05T05:10:49.962Z,14.81
2017-09-05T05:11:49.953Z,14.81
2017-09-05T05:12:49.940Z,14.81
2017-09-05T05:13:49.925Z,14.81
2017-09-05T05:14:49.912Z,14.81
2017-09-05T05:15:49.899Z,14.81
2017-09-05T05:16:50.016Z,14.81
2017-09-05T05:17:49.873Z,14.81
2017-09-05T05:18:49.865Z,14.81
2017-09-05T05:19:49.848Z,14.81
2017-09-05T05:20:49.838Z,14.81
2017-09-05T05:21:49.825Z,14.88
2017-09-05T05:22:49.812Z,14.81
2017-09-05T05:23:49.800Z,14.81
2017-09-05T05:24:49.784Z,14.88
2017-09-05T05:25:49.778Z,14.81
2017-09-05T05:26:49.758Z,14.88
2017-09-05T05:27:49.749Z,14.88
2017-09-05T05:28:49.736Z,14.81
2017-09-05T05:29:49.724Z,14.88
2017-09-05T05:30:49.714Z,14.88
2017-09-05T05:31:49.698Z,14.88
2017-09-05T05:32:49.685Z,14.88
2017-09-05T05:33:49.672Z,14.88
2017-09-05T05:34:49.669Z,14.88
2017-09-05T05:35:49.646Z,14.88
2017-09-05T05:36:49.634Z,14.88
2017-09-05T05:37:49.621Z,14.88
2017-09-05T05:38:49.614Z,14.88
2017-09-05T05:39:49.596Z,14.88
2017-09-05T05:40:49.586Z,14.88
2017-09-05T05:41:49.570Z,14.88
2017-09-05T05:42:49.560Z,14.94
2017-09-05T05:43:49.549Z,14.94
2017-09-05T05:44:49.549Z,14.94
2017-09-05T05:45:49.528Z,14.94
2017-09-05T05:46:49.509Z,14.94
2017-09-05T05:47:49.496Z,14.94
2017-09-05T05:48:49.488Z,14.94
2017-09-05T05:49:50.117Z,14.94
2017-09-05T05:50:50.214Z,14.94
2017-09-05T05:51:49.448Z,14.94
2017-09-05T05:52:49.434Z,14.94
2017-09-05T05:53:49.423Z,14.94
2017-09-05T05:54:49.410Z,15.00
2017-09-05T05:55:49.411Z,15.00
2017-09-05T05:56:49.392Z,15.00
2017-09-05T05:57:49.373Z,15.00
2017-09-05T05:58:49.365Z,15.00
2017-09-05T05:59:49.351Z,15.00
2017-09-05T06:00:49.334Z,15.00
2017-09-05T06:01:49.322Z,15.00
2017-09-05T06:02:49.329Z,15.00
2017-09-05T06:03:49.380Z,15.00
2017-09-05T06:04:49.286Z,15.00
2017-09-05T06:05:49.271Z,15.00
2017-09-05T06:06:49.262Z,15.06
2017-09-05T06:07:49.246Z,15.06
2017-09-05T06:08:49.238Z,15.06
2017-09-05T06:09:49.226Z,15.06
2017-09-05T06:10:49.214Z,15.06
2017-09-05T06:11:49.197Z,15.06
2017-09-05T06:12:49.189Z,15.13
2017-09-05T06:13:49.176Z,15.13
2017-09-05T06:14:49.164Z,15.13
2017-09-05T06:15:49.151Z,15.19
2017-09-05T06:16:49.142Z,15.19
2017-09-05T06:17:49.126Z,15.19
2017-09-05T06:18:49.116Z,15.19
2017-09-05T06:19:49.106Z,15.25
2017-09-05T06:20:49.084Z,15.25
2017-09-05T06:21:49.074Z,15.31
2017-09-05T06:22:49.064Z,15.31
2017-09-05T06:23:49.054Z,15.31
2017-09-05T06:24:49.042Z,15.31
2017-09-05T06:25:49.024Z,15.38
2017-09-05T06:26:49.017Z,15.38
2017-09-05T06:27:49.002Z,15.38
2017-09-05T06:28:48.988Z,15.38
2017-09-05T06:29:48.976Z,15.38
2017-09-05T06:30:48.967Z,15.44
2017-09-05T06:31:48.947Z,15.44
2017-09-05T06:32:48.937Z,15.44
2017-09-05T06:33:48.921Z,15.50
2017-09-05T06:34:48.921Z,15.50
2017-09-05T06:35:48.906Z,15.56
2017-09-05T06:36:48.893Z,15.56
2017-09-05T06:37:48.874Z,15.63
2017-09-05T06:38:48.864Z,15.63
2017-09-05T06:39:48.854Z,15.63
2017-09-05T06:40:48.842Z,15.69
2017-09-05T06:41:48.832Z,15.69
2017-09-05T06:42:48.820Z,15.69
2017-09-05T06:43:48.807Z,15.69
2017-09-05T06:44:48.793Z,15.69
2017-09-05T06:45:48.780Z,15.75
2017-09-05T06:46:48.767Z,15.75
2017-09-05T06:47:48.758Z,15.75
2017-09-05T06:48:48.745Z,15.75
2017-09-05T06:49:48.732Z,15.75
2017-09-05T06:50:48.719Z,15.75
2017-09-05T06:51:48.704Z,15.75
2017-09-05T06:52:48.691Z,15.75
2017-09-05T06:53:48.678Z,15.75
2017-09-05T06:54:48.668Z,15.75
2017-09-05T06:55:48.655Z,15.75
2017-09-05T06:56:48.645Z,15.81
2017-09-05T06:57:48.640Z,15.81
2017-09-05T06:58:48.620Z,15.88
2017-09-05T06:59:48.611Z,15.88
2017-09-05T07:00:48.600Z,15.94
2017-09-05T07:01:48.587Z,15.94
2017-09-05T07:02:48.577Z,16.00
2017-09-05T07:03:48.558Z,16.00
2017-09-05T07:04:48.546Z,16.06
2017-09-05T07:05:48.538Z,16.06
2017-09-05T07:06:48.525Z,16.06
2017-09-05T07:07:48.511Z,16.13
2017-09-05T07:08:48.500Z,16.13
2017-09-05T07:09:48.487Z,16.19
2017-09-05T07:10:48.475Z,16.19
2017-09-05T07:11:48.468Z,16.25
2017-09-05T07:12:48.449Z,16.25
2017-09-05T07:13:48.443Z,16.31
2017-09-05T07:14:48.433Z,16.38
2017-09-05T07:15:48.418Z,16.44
2017-09-05T07:16:48.405Z,16.50
2017-09-05T07:17:48.395Z,16.50
2017-09-05T07:18:48.380Z,16.56
2017-09-05T07:19:48.366Z,16.63
2017-09-05T07:20:48.360Z,16.69
2017-09-05T07:21:48.344Z,16.69
2017-09-05T07:22:48.336Z,16.75
2017-09-05T07:23:48.323Z,16.81
2017-09-05T07:24:48.305Z,16.88
2017-09-05T07:25:48.299Z,16.88
2017-09-05T07:26:48.284Z,16.94
2017-09-05T07:27:48.277Z,17.00
2017-09-05T07:28:48.260Z,17.00
2017-09-05T07:29:48.245Z,17.06
2017-09-05T07:30:48.238Z,17.13
2017-09-05T07:31:48.224Z,17.13
2017-09-05T07:32:48.209Z,17.19
2017-09-05T07:33:48.199Z,17.19
2017-09-05T07:34:48.187Z,17.19
2017-09-05T07:35:48.180Z,17.19
2017-09-05T07:36:48.168Z,17.25
2017-09-05T07:37:48.155Z,17.31
2017-09-05T07:38:48.138Z,17.31
2017-09-05T07:39:48.126Z,17.38
2017-09-05T07:40:48.121Z,17.44
2017-09-05T07:41:48.106Z,17.50
2017-09-05T07:42:48.097Z,17.50
2017-09-05T07:43:48.084Z,17.56
2017-09-05T07:44:48.071Z,17.56
2017-09-05T07:45:48.061Z,17.63
2017-09-05T07:46:48.046Z,17.63
2017-09-05T07:47:48.033Z,17.69
2017-09-05T07:48:48.026Z,17.69
2017-09-05T07:49:48.014Z,17.75
2017-09-05T07:50:48.007Z,17.81
2017-09-05T07:51:47.994Z,17.81
2017-09-05T07:52:47.978Z,17.88
2017-09-05T07:53:47.962Z,17.94
2017-09-05T07:54:47.953Z,17.94
2017-09-05T07:55:47.946Z,18.00
2017-09-05T07:56:47.933Z,18.06
2017-09-05T07:57:47.917Z,18.06
2017-09-05T07:58:47.910Z,18.13
2017-09-05T07:59:47.891Z,18.19
2017-09-05T08:00:47.889Z,18.25
2017-09-05T08:01:47.876Z,18.25
2017-09-05T08:02:47.863Z,18.31
2017-09-05T08:03:47.850Z,18.38
2017-09-05T08:04:47.839Z,18.44
2017-09-05T08:05:47.826Z,18.44
2017-09-05T08:06:47.817Z,18.50
2017-09-05T08:07:47.800Z,18.50
2017-09-05T08:08:47.793Z,18.50
2017-09-05T08:09:47.779Z,18.50
2017-09-05T08:10:47.772Z,18.50
2017-09-05T08:11:47.759Z,18.56
2017-09-05T08:12:47.748Z,18.63
2017-09-05T08:13:47.736Z,18.63
2017-09-05T08:14:47.724Z,18.63
2017-09-05T08:15:47.723Z,18.63
2017-09-05T08:16:47.701Z,18.69
2017-09-05T08:17:47.689Z,18.69
2017-09-05T08:18:47.678Z,18.75
2017-09-05T08:19:47.669Z,18.81
2017-09-05T08:20:47.659Z,18.81
2017-09-05T08:21:47.643Z,18.81
2017-09-05T08:22:47.634Z,18.81
2017-09-05T08:23:47.621Z,18.81
2017-09-05T08:24:47.621Z,18.81
2017-09-05T08:25:47.600Z,18.81
2017-09-05T08:26:47.589Z,18.81
2017-09-05T08:27:47.576Z,18.81
2017-09-05T08:28:47.561Z,18.81
2017-09-05T08:29:47.554Z,18.81
2017-09-05T08:30:47.554Z,18.81
2017-09-05T08:31:47.531Z,18.81
2017-09-05T08:32:47.519Z,18.81
2017-09-05T08:33:47.506Z,18.81
2017-09-05T08:34:47.500Z,18.75
2017-09-05T08:35:47.484Z,18.81
2017-09-05T08:36:47.477Z,18.81
2017-09-05T08:37:47.458Z,18.81
2017-09-05T08:38:47.448Z,18.88
2017-09-05T08:39:47.440Z,18.88
2017-09-05T08:40:47.430Z,18.88
2017-09-05T08:41:47.422Z,18.94
2017-09-05T08:42:47.406Z,19.00
2017-09-05T08:43:47.391Z,19.00
2017-09-05T08:44:47.382Z,19.06
2017-09-05T08:45:47.372Z,19.13
2017-09-05T08:46:47.359Z,19.19
2017-09-05T08:47:47.347Z,19.19
2017-09-05T08:48:47.337Z,19.25
2017-09-05T08:49:47.327Z,19.31
2017-09-05T08:50:47.311Z,19.38
2017-09-05T08:51:47.302Z,19.38
2017-09-05T08:52:47.289Z,19.44
2017-09-05T08:53:47.283Z,19.44
2017-09-05T08:54:47.272Z,19.50
2017-09-05T08:55:47.260Z,19.50
2017-09-05T08:56:47.247Z,19.50
2017-09-05T08:57:47.234Z,19.56
2017-09-05T08:58:47.227Z,19.63
2017-09-05T08:59:47.300Z,19.63
2017-09-05T09:00:47.208Z,19.75
2017-09-05T09:01:47.184Z,19.75
2017-09-05T09:02:47.177Z,19.81
2017-09-05T09:03:47.167Z,19.81
2017-09-05T09:04:47.158Z,19.88
2017-09-05T09:05:47.145Z,19.94
2017-09-05T09:06:47.133Z,19.94
2017-09-05T09:07:47.120Z,20.00
2017-09-05T09:08:47.110Z,20.00
2017-09-05T09:09:47.105Z,20.00
2017-09-05T09:10:47.089Z,20.06
2017-09-05T09:11:47.075Z,20.19
2017-09-05T09:12:47.063Z,20.19
2017-09-05T09:13:47.050Z,20.25
2017-09-05T09:14:47.039Z,20.31
2017-09-05T09:15:47.027Z,20.31
2017-09-05T09:17:08.780Z,20.38
2017-09-05T09:17:47.008Z,20.38
2017-09-05T09:18:46.999Z,20.44
2017-09-05T09:19:46.987Z,20.44
2017-09-05T09:20:46.973Z,20.44
2017-09-05T09:21:46.961Z,20.50
2017-09-05T09:22:46.948Z,20.56
2017-09-05T09:23:46.938Z,20.56
2017-09-05T09:24:46.930Z,20.63
2017-09-05T09:25:46.916Z,20.63
2017-09-05T09:26:46.909Z,20.69
2017-09-05T09:27:46.897Z,20.75
2017-09-05T09:28:46.883Z,20.75
2017-09-05T09:29:46.868Z,20.81
2017-09-05T09:30:46.867Z,20.88
2017-09-05T09:31:46.852Z,20.94
2017-09-05T09:32:46.839Z,21.00
2017-09-05T09:33:46.826Z,21.06
2017-09-05T09:34:46.814Z,21.06
2017-09-05T09:35:46.807Z,21.13
2017-09-05T09:36:46.787Z,21.13
2017-09-05T09:37:46.781Z,21.19
2017-09-05T09:38:46.770Z,21.19
2017-09-05T09:39:46.766Z,21.25
2017-09-05T09:40:46.748Z,21.31
2017-09-05T09:41:46.735Z,21.44
2017-09-05T09:42:46.726Z,21.50
2017-09-05T09:43:46.710Z,21.63
2017-09-05T09:44:46.709Z,21.69
2017-09-05T09:45:46.691Z,21.69
2017-09-05T09:46:46.681Z,21.75
2017-09-05T09:47:46.666Z,21.81
2017-09-05T09:48:46.663Z,21.88
2017-09-05T09:49:46.649Z,21.94
2017-09-05T09:50:46.639Z,22.06
2017-09-05T09:51:46.624Z,22.13
2017-09-05T09:52:46.613Z,22.19
2017-09-05T09:53:46.603Z,22.25
2017-09-05T09:54:46.592Z,22.31
2017-09-05T09:55:46.583Z,22.38
2017-09-05T09:56:46.570Z,22.44
2017-09-05T09:57:46.564Z,22.50
2017-09-05T09:58:46.551Z,22.50
2017-09-05T09:59:46.542Z,22.50
2017-09-05T10:00:46.528Z,22.56
2017-09-05T10:01:46.519Z,22.63
2017-09-05T10:02:46.506Z,22.69
2017-09-05T10:03:46.494Z,22.75
2017-09-05T10:04:46.481Z,22.81
2017-09-05T10:05:46.471Z,22.88
2017-09-05T10:06:46.464Z,22.88
2017-09-05T10:07:46.451Z,22.94
2017-09-05T10:08:46.436Z,23.00
2017-09-05T10:09:46.423Z,23.06
2017-09-05T10:10:46.418Z,23.06
2017-09-05T10:11:46.411Z,23.06
2017-09-05T10:12:46.397Z,23.13
2017-09-05T10:13:46.383Z,23.13
2017-09-05T10:14:46.380Z,23.13
2017-09-05T10:15:46.364Z,23.19
2017-09-05T10:16:46.355Z,23.25
2017-09-05T10:17:46.345Z,23.38
2017-09-05T10:18:46.339Z,23.44
2017-09-05T10:19:46.350Z,23.44
2017-09-05T10:20:46.314Z,23.56
2017-09-05T10:21:46.304Z,23.63
2017-09-05T10:22:46.288Z,23.63
2017-09-05T10:23:46.278Z,23.75
2017-09-05T10:24:46.271Z,23.81
2017-09-05T10:25:46.259Z,23.88
2017-09-05T10:26:46.249Z,23.81
2017-09-05T10:27:46.240Z,23.81
2017-09-05T10:28:46.230Z,23.81
2017-09-05T10:29:46.217Z,23.88
2017-09-05T10:30:46.223Z,23.94
2017-09-05T10:31:46.200Z,24.00
2017-09-05T10:32:46.185Z,24.00
2017-09-05T10:33:46.175Z,24.06
2017-09-05T10:34:46.165Z,24.13
2017-09-05T10:35:46.159Z,24.19
2017-09-05T10:36:46.146Z,24.19
2017-09-05T10:37:46.133Z,24.31
2017-09-05T10:38:46.126Z,24.38
2017-09-05T10:39:46.117Z,24.44
2017-09-05T10:40:46.098Z,24.56
2017-09-05T10:41:46.098Z,24.75
2017-09-05T10:42:46.088Z,24.94
2017-09-05T10:43:46.081Z,25.13
2017-09-05T10:44:46.068Z,25.38
2017-09-05T10:45:46.059Z,25.56
2017-09-05T10:46:46.046Z,25.69
2017-09-05T10:47:46.041Z,25.75
2017-09-05T10:48:46.033Z,25.94
2017-09-05T10:49:46.011Z,26.00
2017-09-05T10:50:46.011Z,26.13
2017-09-05T10:51:46.004Z,26.13
2017-09-05T10:52:45.989Z,26.06
2017-09-05T10:53:45.979Z,25.94
2017-09-05T10:54:45.966Z,25.94
2017-09-05T10:55:45.962Z,26.00
2017-09-05T10:56:45.951Z,26.13
2017-09-05T10:57:45.938Z,26.13
2017-09-05T10:58:45.931Z,26.19
2017-09-05T10:59:45.918Z,26.19
2017-09-05T11:00:45.908Z,26.31
2017-09-05T11:01:45.899Z,26.38
2017-09-05T11:02:45.893Z,26.56
2017-09-05T11:03:45.880Z,26.56
2017-09-05T11:04:45.874Z,26.56
2017-09-05T11:05:45.861Z,26.63
2017-09-05T11:06:45.854Z,26.63
2017-09-05T11:07:45.841Z,26.75
2017-09-05T11:08:45.835Z,26.75
2017-09-05T11:09:45.822Z,26.75
2017-09-05T11:10:45.816Z,26.63
2017-09-05T11:11:45.810Z,26.63
2017-09-05T11:12:45.796Z,26.56
2017-09-05T11:13:45.780Z,26.56
2017-09-05T11:14:45.775Z,26.50
2017-09-05T11:15:45.767Z,26.50
2017-09-05T11:16:45.756Z,26.38
2017-09-05T11:17:45.746Z,26.31
2017-09-05T11:18:45.739Z,26.25
2017-09-05T11:19:45.729Z,26.13
2017-09-05T11:20:45.722Z,26.13
2017-09-05T11:21:45.713Z,26.06
2017-09-05T11:22:45.710Z,26.06
2017-09-05T11:23:45.691Z,26.13
2017-09-05T11:24:45.678Z,26.13
2017-09-05T11:25:45.668Z,26.19
2017-09-05T11:26:45.670Z,26.19
2017-09-05T11:27:45.662Z,26.25
2017-09-05T11:28:45.652Z,26.25
2017-09-05T11:29:45.640Z,26.25
2017-09-05T11:30:45.633Z,26.25
2017-09-05T11:31:45.620Z,26.31
2017-09-05T11:32:45.617Z,26.38
2017-09-05T11:33:45.600Z,26.31
2017-09-05T11:34:45.594Z,26.25
2017-09-05T11:35:45.582Z,26.25
2017-09-05T11:36:45.575Z,26.25
2017-09-05T11:37:45.568Z,26.31
2017-09-05T11:38:45.553Z,26.44
2017-09-05T11:39:45.548Z,26.56
2017-09-05T11:40:45.545Z,26.56
2017-09-05T11:41:45.533Z,26.69
2017-09-05T11:42:45.520Z,26.75
2017-09-05T11:43:45.518Z,26.75
2017-09-05T11:44:45.511Z,26.75
2017-09-05T11:45:45.498Z,26.75
2017-09-05T11:46:45.491Z,26.75
2017-09-05T11:47:45.482Z,26.69
2017-09-05T11:48:45.476Z,26.75
2017-09-05T11:49:45.463Z,26.69
2017-09-05T11:50:45.450Z,26.75
2017-09-05T11:51:45.445Z,26.75
2017-09-05T11:52:45.437Z,26.81
2017-09-05T11:53:45.433Z,26.88
2017-09-05T11:54:45.428Z,26.94
2017-09-05T11:55:45.411Z,27.00
2017-09-05T11:56:45.404Z,27.13
2017-09-05T11:57:45.393Z,27.25
2017-09-05T11:58:45.388Z,27.38
2017-09-05T11:59:45.375Z,27.50
2017-09-05T12:00:45.372Z,27.63
2017-09-05T12:01:45.364Z,27.63
2017-09-05T12:02:45.363Z,27.63
2017-09-05T12:03:45.342Z,27.63
2017-09-05T12:04:45.336Z,27.56
2017-09-05T12:05:45.327Z,27.56
2017-09-05T12:06:45.322Z,27.44
2017-09-05T12:07:45.308Z,27.38
2017-09-05T12:08:45.304Z,27.31
2017-09-05T12:09:45.291Z,27.31
2017-09-05T12:10:45.292Z,27.38
2017-09-05T12:11:45.278Z,27.38
2017-09-05T12:12:45.267Z,27.50
2017-09-05T12:13:45.258Z,27.50
2017-09-05T12:14:45.253Z,27.63
2017-09-05T12:15:45.244Z,27.75
2017-09-05T12:16:45.240Z,27.94
2017-09-05T12:17:45.239Z,28.13
2017-09-05T12:18:45.221Z,28.31
2017-09-05T12:19:45.212Z,28.50
2017-09-05T12:20:45.209Z,28.63
2017-09-05T12:21:45.196Z,28.69
2017-09-05T12:22:45.190Z,28.75
2017-09-05T12:23:45.177Z,28.63
2017-09-05T12:24:45.173Z,28.50
2017-09-05T12:25:45.163Z,28.44
2017-09-05T12:26:45.157Z,28.44
2017-09-05T12:27:45.151Z,28.38
2017-09-05T12:28:45.145Z,28.38
2017-09-05T12:29:45.132Z,28.38
2017-09-05T12:30:45.122Z,28.31
2017-09-05T12:31:45.119Z,28.25
2017-09-05T12:32:45.110Z,28.19
2017-09-05T12:33:45.101Z,28.13
2017-09-05T12:34:45.097Z,28.19
2017-09-05T12:35:45.084Z,28.25
2017-09-05T12:36:45.081Z,28.25
2017-09-05T12:37:45.069Z,28.19
2017-09-05T12:38:45.062Z,28.13
2017-09-05T12:39:45.056Z,28.06
2017-09-05T12:40:45.048Z,28.00
2017-09-05T12:41:45.039Z,27.88
2017-09-05T12:42:45.036Z,27.81
2017-09-05T12:43:45.026Z,27.81
2017-09-05T12:44:45.017Z,27.75
2017-09-05T12:45:45.015Z,27.69
2017-09-05T12:46:45.010Z,27.69
2017-09-05T12:47:44.995Z,27.75
2017-09-05T12:48:44.988Z,27.75
2017-09-05T12:49:44.978Z,27.75
2017-09-05T12:50:44.973Z,27.75
2017-09-05T12:51:44.966Z,27.75
2017-09-05T12:52:44.960Z,27.75